sensor_id;sensor_type;location;lat;lon;timestamp;P1;durP1;ratioP1;P2;durP2;ratioP2
16642;SDS011;8435;52.184;5.406;2023-03-24T00:01:49;4.13;;;2.60;;
16642;SDS011;8435;52.184;5.406;2023-03-24T00:04:17;3.20;;;2.90;;
16642;SDS011;8435;52.184;5.406;2023-03-24T00:06:45;3.00;;;2.43;;
16642;SDS011;8435;52.184;5.406;2023-03-24T00:09:13;4.17;;;2.60;;
16642;SDS011;8435;52.184;5.406;2023-03-24T00:11:40;3.27;;;2.53;;
16642;SDS011;8435;52.184;5.406;2023-03-24T00:14:07;3.77;;;2.40;;
16642;SDS011;8435;52.184;5.406;2023-03-24T00:16:36;4.10;;;2.50;;
16642;SDS011;8435;52.184;5.406;2023-03-24T00:19:06;4.73;;;2.80;;
16642;SDS011;8435;52.184;5.406;2023-03-24T00:21:36;2.63;;;2.17;;
16642;SDS011;8435;52.184;5.406;2023-03-24T00:24:03;4.20;;;2.80;;
16642;SDS011;8435;52.184;5.406;2023-03-24T00:26:32;2.63;;;2.10;;
16642;SDS011;8435;52.184;5.406;2023-03-24T00:29:01;3.37;;;2.50;;
16642;SDS011;8435;52.184;5.406;2023-03-24T00:31:29;3.73;;;2.70;;
16642;SDS011;8435;52.184;5.406;2023-03-24T00:33:56;3.30;;;2.30;;
16642;SDS011;8435;52.184;5.406;2023-03-24T00:36:23;3.93;;;2.50;;
16642;SDS011;8435;52.184;5.406;2023-03-24T00:38:54;3.53;;;2.73;;
16642;SDS011;8435;52.184;5.406;2023-03-24T00:41:22;3.10;;;2.47;;
16642;SDS011;8435;52.184;5.406;2023-03-24T00:43:52;3.03;;;2.23;;
16642;SDS011;8435;52.184;5.406;2023-03-24T00:46:21;3.50;;;2.90;;
16642;SDS011;8435;52.184;5.406;2023-03-24T00:49:00;2.67;;;2.37;;
16642;SDS011;8435;52.184;5.406;2023-03-24T00:51:28;2.90;;;2.17;;
16642;SDS011;8435;52.184;5.406;2023-03-24T00:53:57;2.50;;;2.30;;
16642;SDS011;8435;52.184;5.406;2023-03-24T00:56:30;2.83;;;2.57;;
16642;SDS011;8435;52.184;5.406;2023-03-24T00:58:59;3.10;;;2.37;;
16642;SDS011;8435;52.184;5.406;2023-03-24T01:01:30;3.97;;;2.67;;
16642;SDS011;8435;52.184;5.406;2023-03-24T01:03:59;3.63;;;2.47;;
16642;SDS011;8435;52.184;5.406;2023-03-24T01:06:26;2.80;;;2.43;;
16642;SDS011;8435;52.184;5.406;2023-03-24T01:08:54;4.40;;;3.00;;
16642;SDS011;8435;52.184;5.406;2023-03-24T01:11:23;6.17;;;3.70;;
16642;SDS011;8435;52.184;5.406;2023-03-24T01:13:51;3.60;;;3.17;;
16642;SDS011;8435;52.184;5.406;2023-03-24T01:16:19;3.90;;;2.57;;
16642;SDS011;8435;52.184;5.406;2023-03-24T01:18:49;3.23;;;2.63;;
16642;SDS011;8435;52.184;5.406;2023-03-24T01:21:19;2.97;;;2.57;;
16642;SDS011;8435;52.184;5.406;2023-03-24T01:23:46;2.77;;;2.33;;
16642;SDS011;8435;52.184;5.406;2023-03-24T01:26:12;6.63;;;4.10;;
16642;SDS011;8435;52.184;5.406;2023-03-24T01:28:44;10.07;;;8.27;;
16642;SDS011;8435;52.184;5.406;2023-03-24T01:31:10;5.93;;;5.33;;
16642;SDS011;8435;52.184;5.406;2023-03-24T01:33:37;5.67;;;4.70;;
16642;SDS011;8435;52.184;5.406;2023-03-24T01:36:07;4.73;;;4.33;;
16642;SDS011;8435;52.184;5.406;2023-03-24T01:38:34;3.80;;;3.50;;
16642;SDS011;8435;52.184;5.406;2023-03-24T01:41:01;4.60;;;4.00;;
16642;SDS011;8435;52.184;5.406;2023-03-24T01:43:30;3.07;;;2.57;;
16642;SDS011;8435;52.184;5.406;2023-03-24T01:46:04;2.83;;;2.50;;
16642;SDS011;8435;52.184;5.406;2023-03-24T01:48:35;2.60;;;2.40;;
16642;SDS011;8435;52.184;5.406;2023-03-24T01:51:10;2.57;;;2.33;;
16642;SDS011;8435;52.184;5.406;2023-03-24T01:53:41;3.00;;;2.70;;
16642;SDS011;8435;52.184;5.406;2023-03-24T01:56:10;2.80;;;2.60;;
16642;SDS011;8435;52.184;5.406;2023-03-24T01:58:39;2.70;;;2.20;;
16642;SDS011;8435;52.184;5.406;2023-03-24T02:01:12;3.13;;;2.60;;
16642;SDS011;8435;52.184;5.406;2023-03-24T02:03:39;3.73;;;2.80;;
16642;SDS011;8435;52.184;5.406;2023-03-24T02:06:07;4.23;;;2.60;;
16642;SDS011;8435;52.184;5.406;2023-03-24T02:08:36;3.00;;;2.40;;
16642;SDS011;8435;52.184;5.406;2023-03-24T02:11:07;2.93;;;2.50;;
16642;SDS011;8435;52.184;5.406;2023-03-24T02:13:34;2.80;;;2.23;;
16642;SDS011;8435;52.184;5.406;2023-03-24T02:16:14;2.50;;;2.30;;
16642;SDS011;8435;52.184;5.406;2023-03-24T02:19:07;2.57;;;2.37;;
16642;SDS011;8435;52.184;5.406;2023-03-24T02:28:14;2.70;;;2.50;;
16642;SDS011;8435;52.184;5.406;2023-03-24T02:30:55;2.60;;;2.40;;
16642;SDS011;8435;52.184;5.406;2023-03-24T02:37:00;2.40;;;2.20;;
16642;SDS011;8435;52.184;5.406;2023-03-24T02:39:58;2.27;;;2.07;;
16642;SDS011;8435;52.184;5.406;2023-03-24T02:42:44;2.13;;;1.73;;
16642;SDS011;8435;52.184;5.406;2023-03-24T02:45:22;2.57;;;2.10;;
16642;SDS011;8435;52.184;5.406;2023-03-24T02:47:56;1.97;;;1.80;;
16642;SDS011;8435;52.184;5.406;2023-03-24T02:50:34;1.63;;;1.53;;
16642;SDS011;8435;52.184;5.406;2023-03-24T02:53:06;1.77;;;1.40;;
16642;SDS011;8435;52.184;5.406;2023-03-24T02:55:42;2.30;;;1.17;;
16642;SDS011;8435;52.184;5.406;2023-03-24T02:58:16;1.40;;;1.10;;
16642;SDS011;8435;52.184;5.406;2023-03-24T03:00:47;2.47;;;1.30;;
16642;SDS011;8435;52.184;5.406;2023-03-24T03:03:18;1.23;;;0.97;;
16642;SDS011;8435;52.184;5.406;2023-03-24T03:05:49;5.33;;;1.30;;
16642;SDS011;8435;52.184;5.406;2023-03-24T03:08:22;2.43;;;1.27;;
16642;SDS011;8435;52.184;5.406;2023-03-24T03:10:53;3.33;;;1.30;;
16642;SDS011;8435;52.184;5.406;2023-03-24T03:13:24;2.33;;;1.30;;
16642;SDS011;8435;52.184;5.406;2023-03-24T03:15:57;1.83;;;1.40;;
16642;SDS011;8435;52.184;5.406;2023-03-24T03:18:30;3.40;;;1.33;;
16642;SDS011;8435;52.184;5.406;2023-03-24T03:20:59;4.07;;;1.37;;
16642;SDS011;8435;52.184;5.406;2023-03-24T03:23:32;5.03;;;1.47;;
16642;SDS011;8435;52.184;5.406;2023-03-24T03:26:04;4.53;;;1.30;;
16642;SDS011;8435;52.184;5.406;2023-03-24T03:28:37;1.87;;;1.07;;
16642;SDS011;8435;52.184;5.406;2023-03-24T03:31:15;3.80;;;1.40;;
16642;SDS011;8435;52.184;5.406;2023-03-24T03:33:46;3.77;;;1.23;;
16642;SDS011;8435;52.184;5.406;2023-03-24T03:36:19;3.60;;;1.33;;
16642;SDS011;8435;52.184;5.406;2023-03-24T03:38:53;3.60;;;1.40;;
16642;SDS011;8435;52.184;5.406;2023-03-24T03:41:24;2.97;;;1.53;;
16642;SDS011;8435;52.184;5.406;2023-03-24T03:43:51;4.83;;;1.43;;
16642;SDS011;8435;52.184;5.406;2023-03-24T03:46:18;3.07;;;1.20;;
16642;SDS011;8435;52.184;5.406;2023-03-24T03:48:45;4.33;;;1.60;;
16642;SDS011;8435;52.184;5.406;2023-03-24T03:51:12;6.43;;;1.80;;
16642;SDS011;8435;52.184;5.406;2023-03-24T03:53:41;3.37;;;1.87;;
16642;SDS011;8435;52.184;5.406;2023-03-24T03:56:16;5.13;;;1.77;;
16642;SDS011;8435;52.184;5.406;2023-03-24T03:58:46;6.13;;;1.57;;
16642;SDS011;8435;52.184;5.406;2023-03-24T04:01:16;5.90;;;1.90;;
16642;SDS011;8435;52.184;5.406;2023-03-24T04:06:46;3.47;;;1.67;;
16642;SDS011;8435;52.184;5.406;2023-03-24T04:09:26;5.70;;;1.77;;
16642;SDS011;8435;52.184;5.406;2023-03-24T04:12:07;3.87;;;1.50;;
16642;SDS011;8435;52.184;5.406;2023-03-24T04:17:45;3.97;;;1.77;;
16642;SDS011;8435;52.184;5.406;2023-03-24T04:20:22;5.37;;;1.70;;
16642;SDS011;8435;52.184;5.406;2023-03-24T04:23:00;6.50;;;2.03;;
16642;SDS011;8435;52.184;5.406;2023-03-24T04:25:33;4.87;;;1.50;;
16642;SDS011;8435;52.184;5.406;2023-03-24T04:28:13;6.10;;;1.80;;
16642;SDS011;8435;52.184;5.406;2023-03-24T04:30:51;4.50;;;1.67;;
16642;SDS011;8435;52.184;5.406;2023-03-24T04:33:28;4.00;;;1.80;;
16642;SDS011;8435;52.184;5.406;2023-03-24T04:36:05;5.77;;;2.10;;
16642;SDS011;8435;52.184;5.406;2023-03-24T04:38:43;3.87;;;1.80;;
16642;SDS011;8435;52.184;5.406;2023-03-24T04:41:12;5.50;;;1.70;;
16642;SDS011;8435;52.184;5.406;2023-03-24T04:43:42;6.57;;;1.93;;
16642;SDS011;8435;52.184;5.406;2023-03-24T04:46:11;7.17;;;2.30;;
16642;SDS011;8435;52.184;5.406;2023-03-24T04:48:43;5.53;;;1.70;;
16642;SDS011;8435;52.184;5.406;2023-03-24T04:51:19;5.53;;;1.70;;
16642;SDS011;8435;52.184;5.406;2023-03-24T04:53:48;6.77;;;2.13;;
16642;SDS011;8435;52.184;5.406;2023-03-24T04:56:29;5.07;;;1.93;;
16642;SDS011;8435;52.184;5.406;2023-03-24T04:59:03;6.33;;;2.30;;
16642;SDS011;8435;52.184;5.406;2023-03-24T05:01:31;6.37;;;1.87;;
16642;SDS011;8435;52.184;5.406;2023-03-24T05:04:02;5.97;;;2.03;;
16642;SDS011;8435;52.184;5.406;2023-03-24T05:06:30;8.17;;;2.27;;
16642;SDS011;8435;52.184;5.406;2023-03-24T05:08:56;8.10;;;2.20;;
16642;SDS011;8435;52.184;5.406;2023-03-24T05:11:24;8.57;;;2.60;;
16642;SDS011;8435;52.184;5.406;2023-03-24T05:13:51;6.97;;;2.07;;
16642;SDS011;8435;52.184;5.406;2023-03-24T05:16:18;10.27;;;2.30;;
16642;SDS011;8435;52.184;5.406;2023-03-24T05:18:45;9.37;;;2.53;;
16642;SDS011;8435;52.184;5.406;2023-03-24T05:21:16;8.83;;;2.80;;
16642;SDS011;8435;52.184;5.406;2023-03-24T05:23:45;9.23;;;2.90;;
16642;SDS011;8435;52.184;5.406;2023-03-24T05:26:12;11.97;;;4.07;;
16642;SDS011;8435;52.184;5.406;2023-03-24T05:28:41;7.57;;;3.40;;
16642;SDS011;8435;52.184;5.406;2023-03-24T05:31:08;9.13;;;3.10;;
16642;SDS011;8435;52.184;5.406;2023-03-24T05:33:35;7.07;;;2.80;;
16642;SDS011;8435;52.184;5.406;2023-03-24T05:36:02;10.07;;;2.80;;
16642;SDS011;8435;52.184;5.406;2023-03-24T05:38:33;12.20;;;2.80;;
16642;SDS011;8435;52.184;5.406;2023-03-24T05:41:00;9.33;;;2.77;;
16642;SDS011;8435;52.184;5.406;2023-03-24T05:43:27;8.80;;;2.77;;
16642;SDS011;8435;52.184;5.406;2023-03-24T05:45:54;12.63;;;2.90;;
16642;SDS011;8435;52.184;5.406;2023-03-24T05:48:21;12.60;;;3.00;;
16642;SDS011;8435;52.184;5.406;2023-03-24T05:50:48;6.80;;;2.37;;
16642;SDS011;8435;52.184;5.406;2023-03-24T05:53:15;12.67;;;2.90;;
16642;SDS011;8435;52.184;5.406;2023-03-24T05:55:43;14.70;;;3.23;;
16642;SDS011;8435;52.184;5.406;2023-03-24T05:58:10;8.27;;;2.73;;
16642;SDS011;8435;52.184;5.406;2023-03-24T06:00:39;11.47;;;3.30;;
16642;SDS011;8435;52.184;5.406;2023-03-24T06:03:15;10.63;;;3.10;;
16642;SDS011;8435;52.184;5.406;2023-03-24T06:05:42;12.63;;;3.30;;
16642;SDS011;8435;52.184;5.406;2023-03-24T06:08:11;9.27;;;2.63;;
16642;SDS011;8435;52.184;5.406;2023-03-24T06:10:38;12.83;;;3.20;;
16642;SDS011;8435;52.184;5.406;2023-03-24T06:13:07;7.23;;;2.60;;
16642;SDS011;8435;52.184;5.406;2023-03-24T06:15:34;8.17;;;2.40;;
16642;SDS011;8435;52.184;5.406;2023-03-24T06:18:06;11.23;;;2.57;;
16642;SDS011;8435;52.184;5.406;2023-03-24T06:20:33;9.63;;;2.87;;
16642;SDS011;8435;52.184;5.406;2023-03-24T06:23:00;9.23;;;3.20;;
16642;SDS011;8435;52.184;5.406;2023-03-24T06:25:27;7.67;;;2.53;;
16642;SDS011;8435;52.184;5.406;2023-03-24T06:27:57;10.00;;;2.60;;
16642;SDS011;8435;52.184;5.406;2023-03-24T06:30:30;8.53;;;2.53;;
16642;SDS011;8435;52.184;5.406;2023-03-24T06:33:01;6.47;;;2.87;;
16642;SDS011;8435;52.184;5.406;2023-03-24T06:35:28;10.27;;;3.30;;
16642;SDS011;8435;52.184;5.406;2023-03-24T06:37:57;8.83;;;3.03;;
16642;SDS011;8435;52.184;5.406;2023-03-24T06:40:25;7.67;;;2.63;;
16642;SDS011;8435;52.184;5.406;2023-03-24T06:42:52;13.67;;;3.27;;
16642;SDS011;8435;52.184;5.406;2023-03-24T06:45:18;10.40;;;2.73;;
16642;SDS011;8435;52.184;5.406;2023-03-24T06:47:47;12.80;;;3.13;;
16642;SDS011;8435;52.184;5.406;2023-03-24T06:50:13;7.23;;;2.93;;
16642;SDS011;8435;52.184;5.406;2023-03-24T06:52:40;7.93;;;2.70;;
16642;SDS011;8435;52.184;5.406;2023-03-24T06:55:07;6.90;;;2.90;;
16642;SDS011;8435;52.184;5.406;2023-03-24T06:57:34;10.20;;;2.90;;
16642;SDS011;8435;52.184;5.406;2023-03-24T07:00:02;7.77;;;2.73;;
16642;SDS011;8435;52.184;5.406;2023-03-24T07:02:29;8.63;;;2.83;;
16642;SDS011;8435;52.184;5.406;2023-03-24T07:05:00;8.77;;;2.70;;
16642;SDS011;8435;52.184;5.406;2023-03-24T07:07:30;8.07;;;2.53;;
16642;SDS011;8435;52.184;5.406;2023-03-24T07:09:57;8.50;;;2.90;;
16642;SDS011;8435;52.184;5.406;2023-03-24T07:12:26;5.90;;;2.90;;
16642;SDS011;8435;52.184;5.406;2023-03-24T07:14:55;8.47;;;2.80;;
16642;SDS011;8435;52.184;5.406;2023-03-24T07:17:21;9.00;;;3.47;;
16642;SDS011;8435;52.184;5.406;2023-03-24T07:19:48;10.10;;;3.27;;
16642;SDS011;8435;52.184;5.406;2023-03-24T07:22:16;9.77;;;2.70;;
16642;SDS011;8435;52.184;5.406;2023-03-24T07:24:43;7.87;;;2.63;;
16642;SDS011;8435;52.184;5.406;2023-03-24T07:27:10;9.10;;;3.03;;
16642;SDS011;8435;52.184;5.406;2023-03-24T07:29:37;10.30;;;3.23;;
16642;SDS011;8435;52.184;5.406;2023-03-24T07:32:03;8.27;;;3.00;;
16642;SDS011;8435;52.184;5.406;2023-03-24T07:34:32;9.90;;;2.93;;
16642;SDS011;8435;52.184;5.406;2023-03-24T07:37:00;9.77;;;3.27;;
16642;SDS011;8435;52.184;5.406;2023-03-24T07:39:28;7.93;;;3.10;;
16642;SDS011;8435;52.184;5.406;2023-03-24T07:41:55;11.83;;;3.33;;
16642;SDS011;8435;52.184;5.406;2023-03-24T07:44:24;7.77;;;2.53;;
16642;SDS011;8435;52.184;5.406;2023-03-24T07:46:51;9.17;;;3.10;;
16642;SDS011;8435;52.184;5.406;2023-03-24T07:49:18;10.30;;;2.87;;
16642;SDS011;8435;52.184;5.406;2023-03-24T07:51:45;9.43;;;3.00;;
16642;SDS011;8435;52.184;5.406;2023-03-24T07:54:12;7.97;;;3.67;;
16642;SDS011;8435;52.184;5.406;2023-03-24T07:56:40;8.07;;;2.90;;
16642;SDS011;8435;52.184;5.406;2023-03-24T07:59:07;6.40;;;2.93;;
16642;SDS011;8435;52.184;5.406;2023-03-24T08:01:36;9.27;;;3.63;;
16642;SDS011;8435;52.184;5.406;2023-03-24T08:04:03;9.20;;;3.00;;
16642;SDS011;8435;52.184;5.406;2023-03-24T08:06:31;9.70;;;3.00;;
16642;SDS011;8435;52.184;5.406;2023-03-24T08:08:58;6.37;;;2.47;;
16642;SDS011;8435;52.184;5.406;2023-03-24T08:11:25;9.80;;;4.23;;
16642;SDS011;8435;52.184;5.406;2023-03-24T08:13:53;9.40;;;3.20;;
16642;SDS011;8435;52.184;5.406;2023-03-24T08:16:22;8.03;;;2.70;;
16642;SDS011;8435;52.184;5.406;2023-03-24T08:18:51;7.27;;;2.87;;
16642;SDS011;8435;52.184;5.406;2023-03-24T08:21:22;8.13;;;2.93;;
16642;SDS011;8435;52.184;5.406;2023-03-24T08:23:48;4.13;;;2.33;;
16642;SDS011;8435;52.184;5.406;2023-03-24T08:26:15;5.97;;;2.53;;
16642;SDS011;8435;52.184;5.406;2023-03-24T08:28:46;7.30;;;2.87;;
16642;SDS011;8435;52.184;5.406;2023-03-24T08:31:15;6.27;;;2.67;;
16642;SDS011;8435;52.184;5.406;2023-03-24T08:33:41;10.57;;;2.87;;
16642;SDS011;8435;52.184;5.406;2023-03-24T08:36:08;8.37;;;2.80;;
16642;SDS011;8435;52.184;5.406;2023-03-24T08:38:35;9.30;;;3.07;;
16642;SDS011;8435;52.184;5.406;2023-03-24T08:41:03;8.87;;;2.93;;
16642;SDS011;8435;52.184;5.406;2023-03-24T08:43:33;7.57;;;2.80;;
16642;SDS011;8435;52.184;5.406;2023-03-24T08:46:01;8.00;;;2.90;;
16642;SDS011;8435;52.184;5.406;2023-03-24T08:48:29;9.00;;;2.90;;
16642;SDS011;8435;52.184;5.406;2023-03-24T08:50:56;6.80;;;2.37;;
16642;SDS011;8435;52.184;5.406;2023-03-24T08:53:23;7.80;;;2.93;;
16642;SDS011;8435;52.184;5.406;2023-03-24T08:55:50;10.60;;;3.07;;
16642;SDS011;8435;52.184;5.406;2023-03-24T08:58:17;9.10;;;2.97;;
16642;SDS011;8435;52.184;5.406;2023-03-24T09:00:46;6.87;;;2.97;;
16642;SDS011;8435;52.184;5.406;2023-03-24T09:03:14;8.67;;;3.07;;
16642;SDS011;8435;52.184;5.406;2023-03-24T09:05:43;10.17;;;3.37;;
16642;SDS011;8435;52.184;5.406;2023-03-24T09:08:11;5.43;;;2.67;;
16642;SDS011;8435;52.184;5.406;2023-03-24T09:10:40;5.77;;;2.23;;
16642;SDS011;8435;52.184;5.406;2023-03-24T09:13:10;6.13;;;2.77;;
16642;SDS011;8435;52.184;5.406;2023-03-24T09:15:37;7.57;;;2.90;;
16642;SDS011;8435;52.184;5.406;2023-03-24T09:18:04;8.97;;;3.23;;
16642;SDS011;8435;52.184;5.406;2023-03-24T09:20:31;8.60;;;2.33;;
16642;SDS011;8435;52.184;5.406;2023-03-24T09:23:01;10.53;;;3.03;;
16642;SDS011;8435;52.184;5.406;2023-03-24T09:25:28;6.00;;;2.47;;
16642;SDS011;8435;52.184;5.406;2023-03-24T09:27:55;8.73;;;3.07;;
16642;SDS011;8435;52.184;5.406;2023-03-24T09:30:22;8.03;;;2.77;;
16642;SDS011;8435;52.184;5.406;2023-03-24T09:32:49;7.93;;;3.03;;
16642;SDS011;8435;52.184;5.406;2023-03-24T09:35:15;5.93;;;2.53;;
16642;SDS011;8435;52.184;5.406;2023-03-24T09:37:42;6.77;;;2.37;;
16642;SDS011;8435;52.184;5.406;2023-03-24T09:40:13;5.47;;;2.43;;
16642;SDS011;8435;52.184;5.406;2023-03-24T09:42:46;7.37;;;2.43;;
16642;SDS011;8435;52.184;5.406;2023-03-24T09:45:19;7.83;;;2.73;;
16642;SDS011;8435;52.184;5.406;2023-03-24T09:47:48;5.90;;;2.40;;
16642;SDS011;8435;52.184;5.406;2023-03-24T09:50:21;8.47;;;2.43;;
16642;SDS011;8435;52.184;5.406;2023-03-24T09:52:52;6.93;;;2.60;;
16642;SDS011;8435;52.184;5.406;2023-03-24T09:55:23;5.80;;;2.47;;
16642;SDS011;8435;52.184;5.406;2023-03-24T09:57:54;9.53;;;2.63;;
16642;SDS011;8435;52.184;5.406;2023-03-24T10:00:23;7.33;;;2.53;;
16642;SDS011;8435;52.184;5.406;2023-03-24T10:02:52;5.97;;;2.43;;
16642;SDS011;8435;52.184;5.406;2023-03-24T10:05:25;8.13;;;2.70;;
16642;SDS011;8435;52.184;5.406;2023-03-24T10:07:58;5.33;;;2.47;;
16642;SDS011;8435;52.184;5.406;2023-03-24T10:10:32;6.63;;;2.23;;
16642;SDS011;8435;52.184;5.406;2023-03-24T10:13:06;6.20;;;2.20;;
16642;SDS011;8435;52.184;5.406;2023-03-24T10:15:40;8.07;;;2.10;;
16642;SDS011;8435;52.184;5.406;2023-03-24T10:18:16;5.63;;;2.43;;
16642;SDS011;8435;52.184;5.406;2023-03-24T10:20:59;4.70;;;2.20;;
16642;SDS011;8435;52.184;5.406;2023-03-24T10:23:32;10.57;;;2.40;;
16642;SDS011;8435;52.184;5.406;2023-03-24T10:26:08;9.40;;;2.57;;
16642;SDS011;8435;52.184;5.406;2023-03-24T10:28:51;9.40;;;2.93;;
16642;SDS011;8435;52.184;5.406;2023-03-24T10:31:27;6.50;;;2.37;;
16642;SDS011;8435;52.184;5.406;2023-03-24T10:33:57;7.03;;;2.97;;
16642;SDS011;8435;52.184;5.406;2023-03-24T10:36:28;6.57;;;2.40;;
16642;SDS011;8435;52.184;5.406;2023-03-24T10:38:55;7.97;;;2.57;;
16642;SDS011;8435;52.184;5.406;2023-03-24T10:41:23;7.80;;;2.27;;
16642;SDS011;8435;52.184;5.406;2023-03-24T10:43:53;8.93;;;2.90;;
16642;SDS011;8435;52.184;5.406;2023-03-24T10:46:22;6.37;;;2.33;;
16642;SDS011;8435;52.184;5.406;2023-03-24T10:48:51;8.17;;;2.53;;
16642;SDS011;8435;52.184;5.406;2023-03-24T10:51:20;5.90;;;2.10;;
16642;SDS011;8435;52.184;5.406;2023-03-24T10:53:56;5.87;;;2.37;;
16642;SDS011;8435;52.184;5.406;2023-03-24T10:56:37;5.23;;;1.80;;
16642;SDS011;8435;52.184;5.406;2023-03-24T10:59:13;6.40;;;2.28;;
16642;SDS011;8435;52.184;5.406;2023-03-24T11:01:45;5.25;;;2.40;;
16642;SDS011;8435;52.184;5.406;2023-03-24T11:04:13;8.38;;;2.47;;
16642;SDS011;8435;52.184;5.406;2023-03-24T11:06:51;6.55;;;1.83;;
16642;SDS011;8435;52.184;5.406;2023-03-24T11:09:23;7.03;;;2.25;;
16642;SDS011;8435;52.184;5.406;2023-03-24T11:11:54;6.18;;;2.75;;
16642;SDS011;8435;52.184;5.406;2023-03-24T11:14:24;6.57;;;2.15;;
16642;SDS011;8435;52.184;5.406;2023-03-24T11:16:54;6.60;;;2.30;;
16642;SDS011;8435;52.184;5.406;2023-03-24T11:19:28;5.82;;;2.30;;
16642;SDS011;8435;52.184;5.406;2023-03-24T11:21:58;6.15;;;2.15;;
16642;SDS011;8435;52.184;5.406;2023-03-24T11:24:30;5.05;;;1.98;;
16642;SDS011;8435;52.184;5.406;2023-03-24T11:27:03;4.00;;;1.92;;
16642;SDS011;8435;52.184;5.406;2023-03-24T11:29:30;7.03;;;2.20;;
16642;SDS011;8435;52.184;5.406;2023-03-24T11:31:59;6.83;;;2.40;;
16642;SDS011;8435;52.184;5.406;2023-03-24T11:34:27;6.73;;;2.60;;
16642;SDS011;8435;52.184;5.406;2023-03-24T11:36:58;7.17;;;2.60;;
16642;SDS011;8435;52.184;5.406;2023-03-24T11:39:28;6.00;;;2.70;;
16642;SDS011;8435;52.184;5.406;2023-03-24T11:42:01;5.70;;;2.13;;
16642;SDS011;8435;52.184;5.406;2023-03-24T11:44:40;7.90;;;2.43;;
16642;SDS011;8435;52.184;5.406;2023-03-24T11:47:11;6.97;;;2.57;;
16642;SDS011;8435;52.184;5.406;2023-03-24T11:49:43;7.03;;;2.87;;
16642;SDS011;8435;52.184;5.406;2023-03-24T11:52:18;6.27;;;2.23;;
16642;SDS011;8435;52.184;5.406;2023-03-24T11:54:47;5.93;;;3.10;;
16642;SDS011;8435;52.184;5.406;2023-03-24T11:57:16;5.17;;;2.47;;
16642;SDS011;8435;52.184;5.406;2023-03-24T11:59:52;6.20;;;2.50;;
16642;SDS011;8435;52.184;5.406;2023-03-24T12:02:37;3.97;;;2.10;;
16642;SDS011;8435;52.184;5.406;2023-03-24T12:05:20;4.03;;;2.10;;
16642;SDS011;8435;52.184;5.406;2023-03-24T12:08:00;5.23;;;2.20;;
16642;SDS011;8435;52.184;5.406;2023-03-24T12:10:43;5.67;;;2.40;;
16642;SDS011;8435;52.184;5.406;2023-03-24T12:13:24;5.23;;;2.30;;
16642;SDS011;8435;52.184;5.406;2023-03-24T12:15:59;3.97;;;1.57;;
16642;SDS011;8435;52.184;5.406;2023-03-24T12:18:38;5.33;;;1.90;;
16642;SDS011;8435;52.184;5.406;2023-03-24T12:21:21;4.23;;;2.03;;
16642;SDS011;8435;52.184;5.406;2023-03-24T12:24:01;5.00;;;2.13;;
16642;SDS011;8435;52.184;5.406;2023-03-24T12:26:34;4.97;;;2.03;;
16642;SDS011;8435;52.184;5.406;2023-03-24T12:29:16;6.38;;;1.80;;
16642;SDS011;8435;52.184;5.406;2023-03-24T12:31:57;5.10;;;1.90;;
16642;SDS011;8435;52.184;5.406;2023-03-24T12:38:03;4.63;;;1.27;;
16642;SDS011;8435;52.184;5.406;2023-03-24T12:43:41;5.10;;;1.70;;
16642;SDS011;8435;52.184;5.406;2023-03-24T12:46:22;5.37;;;1.33;;
16642;SDS011;8435;52.184;5.406;2023-03-24T12:49:10;5.60;;;1.70;;
16642;SDS011;8435;52.184;5.406;2023-03-24T12:51:49;5.73;;;1.70;;
16642;SDS011;8435;52.184;5.406;2023-03-24T12:54:33;4.83;;;1.70;;
16642;SDS011;8435;52.184;5.406;2023-03-24T12:57:10;4.00;;;1.40;;
16642;SDS011;8435;52.184;5.406;2023-03-24T12:59:41;4.07;;;1.53;;
16642;SDS011;8435;52.184;5.406;2023-03-24T13:02:15;4.17;;;1.37;;
16642;SDS011;8435;52.184;5.406;2023-03-24T13:04:48;4.43;;;1.33;;
16642;SDS011;8435;52.184;5.406;2023-03-24T13:07:18;4.33;;;1.63;;
16642;SDS011;8435;52.184;5.406;2023-03-24T13:09:56;2.70;;;1.20;;
16642;SDS011;8435;52.184;5.406;2023-03-24T13:12:31;3.57;;;1.57;;
16642;SDS011;8435;52.184;5.406;2023-03-24T13:15:02;4.23;;;1.33;;
16642;SDS011;8435;52.184;5.406;2023-03-24T13:17:43;4.27;;;1.40;;
16642;SDS011;8435;52.184;5.406;2023-03-24T13:20:15;5.43;;;1.93;;
16642;SDS011;8435;52.184;5.406;2023-03-24T13:22:49;3.60;;;1.70;;
16642;SDS011;8435;52.184;5.406;2023-03-24T13:25:19;5.13;;;1.75;;
16642;SDS011;8435;52.184;5.406;2023-03-24T13:27:53;3.80;;;1.73;;
16642;SDS011;8435;52.184;5.406;2023-03-24T13:30:27;2.73;;;1.30;;
16642;SDS011;8435;52.184;5.406;2023-03-24T13:33:03;3.50;;;1.60;;
16642;SDS011;8435;52.184;5.406;2023-03-24T13:35:37;6.18;;;2.40;;
16642;SDS011;8435;52.184;5.406;2023-03-24T13:38:18;4.73;;;1.70;;
16642;SDS011;8435;52.184;5.406;2023-03-24T13:40:53;4.32;;;1.60;;
16642;SDS011;8435;52.184;5.406;2023-03-24T13:43:22;4.90;;;1.80;;
16642;SDS011;8435;52.184;5.406;2023-03-24T13:45:57;4.25;;;1.83;;
16642;SDS011;8435;52.184;5.406;2023-03-24T13:48:34;5.43;;;1.75;;
16642;SDS011;8435;52.184;5.406;2023-03-24T13:51:06;5.05;;;2.10;;
16642;SDS011;8435;52.184;5.406;2023-03-24T13:53:42;5.27;;;1.60;;
16642;SDS011;8435;52.184;5.406;2023-03-24T13:56:11;7.00;;;1.97;;
16642;SDS011;8435;52.184;5.406;2023-03-24T13:58:48;6.68;;;1.83;;
16642;SDS011;8435;52.184;5.406;2023-03-24T14:01:31;6.45;;;2.40;;
16642;SDS011;8435;52.184;5.406;2023-03-24T14:04:19;4.85;;;1.75;;
16642;SDS011;8435;52.184;5.406;2023-03-24T14:06:55;6.07;;;1.87;;
16642;SDS011;8435;52.184;5.406;2023-03-24T14:09:24;3.30;;;1.70;;
16642;SDS011;8435;52.184;5.406;2023-03-24T14:17:44;5.07;;;1.67;;
16642;SDS011;8435;52.184;5.406;2023-03-24T14:20:31;5.73;;;1.70;;
16642;SDS011;8435;52.184;5.406;2023-03-24T14:22:59;5.37;;;1.83;;
16642;SDS011;8435;52.184;5.406;2023-03-24T14:25:28;2.70;;;1.93;;
16642;SDS011;8435;52.184;5.406;2023-03-24T14:28:14;5.63;;;2.00;;
16642;SDS011;8435;52.184;5.406;2023-03-24T14:30:55;4.47;;;1.50;;
16642;SDS011;8435;52.184;5.406;2023-03-24T14:33:31;5.30;;;1.47;;
16642;SDS011;8435;52.184;5.406;2023-03-24T14:36:02;5.70;;;1.70;;
16642;SDS011;8435;52.184;5.406;2023-03-24T14:38:36;3.00;;;1.40;;
16642;SDS011;8435;52.184;5.406;2023-03-24T14:41:15;2.57;;;0.93;;
16642;SDS011;8435;52.184;5.406;2023-03-24T14:43:59;3.00;;;1.40;;
16642;SDS011;8435;52.184;5.406;2023-03-24T14:46:34;4.70;;;1.63;;
16642;SDS011;8435;52.184;5.406;2023-03-24T14:49:20;1.80;;;1.10;;
16642;SDS011;8435;52.184;5.406;2023-03-24T14:51:53;3.83;;;1.50;;
16642;SDS011;8435;52.184;5.406;2023-03-24T14:54:26;3.40;;;1.57;;
16642;SDS011;8435;52.184;5.406;2023-03-24T14:56:57;1.83;;;1.20;;
16642;SDS011;8435;52.184;5.406;2023-03-24T14:59:32;3.03;;;1.43;;
16642;SDS011;8435;52.184;5.406;2023-03-24T15:02:10;2.37;;;1.03;;
16642;SDS011;8435;52.184;5.406;2023-03-24T15:04:42;3.80;;;1.53;;
16642;SDS011;8435;52.184;5.406;2023-03-24T15:07:57;4.50;;;1.27;;
16642;SDS011;8435;52.184;5.406;2023-03-24T15:10:38;6.13;;;1.47;;
16642;SDS011;8435;52.184;5.406;2023-03-24T15:13:27;4.70;;;1.27;;
16642;SDS011;8435;52.184;5.406;2023-03-24T15:15:58;3.37;;;1.93;;
16642;SDS011;8435;52.184;5.406;2023-03-24T15:18:26;5.27;;;1.70;;
16642;SDS011;8435;52.184;5.406;2023-03-24T15:20:56;5.90;;;1.93;;
16642;SDS011;8435;52.184;5.406;2023-03-24T15:23:25;4.77;;;1.70;;
16642;SDS011;8435;52.184;5.406;2023-03-24T15:25:53;6.87;;;1.80;;
16642;SDS011;8435;52.184;5.406;2023-03-24T15:28:21;5.27;;;1.47;;
16642;SDS011;8435;52.184;5.406;2023-03-24T15:30:51;6.27;;;1.30;;
16642;SDS011;8435;52.184;5.406;2023-03-24T15:33:20;3.73;;;1.50;;
16642;SDS011;8435;52.184;5.406;2023-03-24T15:35:53;4.57;;;1.10;;
16642;SDS011;8435;52.184;5.406;2023-03-24T15:38:27;3.33;;;1.43;;
16642;SDS011;8435;52.184;5.406;2023-03-24T15:40:57;4.13;;;1.40;;
16642;SDS011;8435;52.184;5.406;2023-03-24T15:43:27;5.53;;;1.30;;
16642;SDS011;8435;52.184;5.406;2023-03-24T15:45:55;5.07;;;1.80;;
16642;SDS011;8435;52.184;5.406;2023-03-24T15:48:24;4.23;;;1.67;;
16642;SDS011;8435;52.184;5.406;2023-03-24T15:51:00;6.33;;;2.10;;
16642;SDS011;8435;52.184;5.406;2023-03-24T15:53:35;5.43;;;1.83;;
16642;SDS011;8435;52.184;5.406;2023-03-24T15:56:13;4.90;;;2.00;;